createdAt,value
2019-05-07T00:01:18.216Z,51.43
2019-05-07T00:06:23.093Z,51.52
2019-05-07T00:11:26.567Z,51.47
2019-05-07T00:16:29.903Z,51.48
2019-05-07T00:21:33.239Z,51.58
2019-05-07T00:26:36.755Z,51.68
2019-05-07T00:31:41.976Z,51.65
2019-05-07T00:36:49.851Z,51.79
2019-05-07T00:42:02.934Z,51.94
2019-05-07T00:47:05.714Z,52.05
2019-05-07T00:52:11.506Z,52.10
2019-05-07T00:57:14.190Z,52.15
2019-05-07T01:02:17.488Z,52.18
2019-05-07T01:07:22.877Z,52.24
2019-05-07T01:12:25.881Z,52.31
2019-05-07T01:17:29.218Z,52.42
2019-05-07T01:22:33.125Z,52.49
2019-05-07T01:27:36.546Z,52.44
2019-05-07T01:32:47.494Z,52.37
2019-05-07T01:37:52.461Z,52.38
2019-05-07T01:42:55.778Z,52.38
2019-05-07T01:47:59.085Z,52.39
2019-05-07T01:53:03.899Z,52.36
2019-05-07T01:58:07.370Z,52.58
2019-05-07T02:03:12.323Z,52.52
2019-05-07T02:08:32.955Z,52.52
2019-05-07T02:13:36.341Z,52.68
2019-05-07T02:18:39.632Z,52.70
2019-05-07T02:23:42.938Z,52.60
2019-05-07T02:28:46.258Z,52.65
2019-05-07T02:33:49.574Z,52.53
2019-05-07T02:38:57.172Z,52.63
2019-05-07T02:44:03.966Z,52.50
2019-05-07T02:49:14.234Z,52.61
2019-05-07T02:54:35.087Z,52.60
2019-05-07T02:59:38.470Z,52.60
2019-05-07T03:04:43.611Z,52.61
2019-05-07T03:09:46.837Z,52.69
2019-05-07T03:14:53.368Z,52.64
2019-05-07T03:19:56.476Z,52.73
2019-05-07T03:25:03.429Z,53.04
2019-05-07T03:30:25.559Z,53.02
2019-05-07T03:35:27.699Z,53.25
2019-05-07T03:40:33.145Z,53.41
2019-05-07T03:45:38.107Z,53.47
2019-05-07T03:50:43.121Z,51.17
2019-05-07T03:55:46.442Z,53.41
2019-05-07T04:00:53.167Z,52.84
2019-05-07T04:05:54.781Z,52.68
2019-05-07T04:10:58.110Z,52.61
2019-05-07T04:16:04.069Z,53.08
2019-05-07T04:21:06.524Z,53.34
2019-05-07T04:26:23.151Z,53.65
2019-05-07T04:31:27.181Z,54.15
2019-05-07T04:36:34.239Z,54.31
2019-05-07T04:41:36.898Z,54.45
2019-05-07T04:46:43.767Z,54.47
2019-05-07T04:51:49.359Z,53.78
2019-05-07T04:56:53.289Z,53.75
2019-05-07T05:02:03.854Z,53.46
2019-05-07T05:07:05.341Z,53.37
2019-05-07T05:12:08.657Z,52.54
2019-05-07T05:17:12.993Z,52.65
2019-05-07T05:22:17.966Z,52.47
2019-05-07T05:27:22.599Z,52.38
2019-05-07T05:32:25.998Z,52.20
2019-05-07T05:37:29.316Z,52.10
2019-05-07T05:42:34.271Z,51.98
2019-05-07T05:47:37.566Z,51.88
2019-05-07T05:52:42.573Z,51.72
2019-05-07T05:57:56.075Z,51.62
2019-05-07T06:03:06.857Z,51.49
2019-05-07T06:08:12.443Z,51.29
2019-05-07T06:13:32.414Z,51.36
2019-05-07T06:18:53.622Z,51.26
2019-05-07T06:24:02.251Z,51.02
2019-05-07T06:29:05.615Z,51.02
2019-05-07T06:34:08.929Z,51.09
2019-05-07T06:39:22.039Z,50.94
2019-05-07T06:44:25.188Z,50.96
2019-05-07T06:49:28.499Z,50.91
2019-05-07T06:54:32.198Z,50.88
2019-05-07T06:59:42.234Z,50.75
2019-05-07T07:04:46.819Z,50.72
2019-05-07T07:09:57.361Z,50.74
2019-05-07T07:15:02.780Z,50.75
2019-05-07T07:20:06.309Z,50.75
2019-05-07T07:25:11.764Z,50.75
2019-05-07T07:30:25.020Z,50.56
2019-05-07T07:35:42.823Z,50.38
2019-05-07T07:40:47.835Z,50.56
2019-05-07T07:45:52.590Z,50.56
2019-05-07T07:50:55.902Z,50.25
2019-05-07T07:56:16.773Z,50.42
2019-05-07T08:01:27.835Z,50.24
2019-05-07T08:06:32.728Z,50.17
2019-05-07T08:11:36.049Z,50.36
2019-05-07T08:16:39.385Z,50.28
2019-05-07T08:21:42.725Z,50.20
2019-05-07T08:26:46.070Z,49.90
2019-05-07T08:31:59.747Z,49.89
2019-05-07T08:37:03.161Z,49.95
2019-05-07T08:42:06.490Z,49.75
2019-05-07T08:47:20.005Z,49.82
2019-05-07T08:52:25.890Z,49.35
2019-05-07T08:57:28.403Z,49.31
2019-05-07T09:02:32.626Z,49.63
2019-05-07T09:07:36.022Z,49.71
2019-05-07T09:12:39.319Z,49.79
2019-05-07T09:17:42.640Z,50.03
2019-05-07T09:22:45.940Z,50.17
2019-05-07T09:27:52.348Z,50.21
2019-05-07T09:33:06.089Z,50.16
2019-05-07T09:38:09.377Z,50.10
2019-05-07T09:43:12.730Z,49.94
2019-05-07T09:48:16.073Z,49.96
2019-05-07T09:53:19.370Z,49.86
2019-05-07T09:58:35.709Z,50.03
2019-05-07T10:03:27.753Z,50.01
2019-05-07T10:08:32.598Z,49.98
2019-05-07T10:13:37.547Z,49.56
2019-05-07T10:18:42.705Z,49.05
2019-05-07T10:23:46.096Z,49.37
2019-05-07T10:28:49.399Z,49.88
2019-05-07T10:33:52.753Z,49.93
2019-05-07T10:38:56.053Z,49.94
2019-05-07T10:43:59.435Z,49.89
2019-05-07T10:49:18.979Z,49.45
2019-05-07T10:54:22.307Z,49.60
2019-05-07T10:59:25.626Z,49.72
2019-05-07T11:04:40.263Z,49.56
2019-05-07T11:09:34.065Z,49.37
2019-05-07T11:14:37.406Z,49.58
2019-05-07T11:19:41.671Z,49.33
2019-05-07T11:24:45.026Z,49.21
2019-05-07T11:29:48.368Z,49.49
2019-05-07T11:34:52.877Z,49.59
2019-05-07T11:39:56.790Z,49.55
2019-05-07T11:45:02.173Z,49.64
2019-05-07T11:50:14.743Z,49.53
2019-05-07T11:55:18.251Z,48.97
2019-05-07T12:00:38.892Z,49.27
2019-05-07T12:05:42.391Z,49.32
2019-05-07T12:10:45.726Z,49.38
2019-05-07T12:15:49.053Z,48.96
2019-05-07T12:20:54.209Z,48.96
2019-05-07T12:25:57.608Z,48.93
2019-05-07T12:31:14.660Z,49.07
2019-05-07T12:36:18.076Z,49.22
2019-05-07T12:41:30.028Z,49.16
2019-05-07T12:46:33.636Z,49.16
2019-05-07T12:51:38.602Z,49.37
2019-05-07T12:56:42.657Z,49.14
2019-05-07T13:01:52.015Z,49.03
2019-05-07T13:07:08.568Z,49.03
2019-05-07T13:12:11.874Z,49.11
2019-05-07T13:17:15.196Z,49.13
2019-05-07T13:22:18.498Z,49.35
2019-05-07T13:27:21.883Z,49.46
2019-05-07T13:32:25.192Z,49.47
2019-05-07T13:37:30.129Z,49.40
2019-05-07T13:42:44.127Z,49.43
2019-05-07T13:47:49.161Z,49.42
2019-05-07T13:52:52.465Z,49.32
2019-05-07T13:57:55.814Z,49.40
2019-05-07T14:02:59.150Z,49.21
2019-05-07T14:08:04.527Z,49.74
2019-05-07T14:13:14.221Z,49.25
2019-05-07T14:18:12.674Z,49.17
2019-05-07T14:23:15.992Z,49.36
2019-05-07T14:28:19.288Z,48.92
2019-05-07T14:33:39.090Z,49.07
2019-05-07T14:38:46.759Z,49.28
2019-05-07T14:43:57.208Z,49.81
2019-05-07T14:49:02.633Z,50.37
2019-05-07T14:54:05.547Z,50.54
2019-05-07T14:59:08.855Z,50.47
2019-05-07T15:04:12.914Z,50.62
2019-05-07T15:09:16.331Z,50.63
2019-05-07T15:14:19.637Z,51.12
2019-05-07T15:19:23.022Z,50.97
2019-05-07T15:24:26.310Z,51.13
2019-05-07T15:29:31.742Z,50.88
2019-05-07T15:34:34.672Z,51.60
2019-05-07T15:39:38.337Z,51.78
2019-05-07T15:44:43.191Z,52.12
2019-05-07T15:49:46.528Z,52.09
2019-05-07T15:54:49.827Z,52.40
2019-05-07T15:59:54.825Z,53.06
2019-05-07T16:04:58.160Z,52.87
2019-05-07T16:10:01.525Z,53.26
2019-05-07T16:15:07.094Z,53.36
2019-05-07T16:20:12.055Z,53.09
2019-05-07T16:25:15.513Z,52.85
2019-05-07T16:30:18.856Z,52.97
2019-05-07T16:35:22.758Z,54.71
2019-05-07T16:40:26.242Z,54.92
2019-05-07T16:45:29.550Z,55.18
2019-05-07T16:50:32.915Z,54.85
2019-05-07T16:55:36.974Z,55.42
2019-05-07T17:00:42.378Z,55.18
2019-05-07T17:05:45.750Z,55.43
2019-05-07T17:10:49.120Z,54.96
2019-05-07T17:15:56.577Z,55.31
2019-05-07T17:21:01.880Z,55.37
2019-05-07T17:26:05.132Z,55.55
2019-05-07T17:31:08.502Z,55.29
2019-05-07T17:36:12.267Z,55.17
2019-05-07T17:41:21.270Z,55.16
2019-05-07T17:46:21.704Z,54.52
2019-05-07T17:51:42.290Z,54.40
2019-05-07T17:56:45.769Z,54.72
2019-05-07T18:01:53.228Z,54.63
2019-05-07T18:06:56.600Z,54.65
2019-05-07T18:11:59.932Z,54.52
2019-05-07T18:17:04.893Z,54.67
2019-05-07T18:22:08.367Z,55.08
2019-05-07T18:27:13.323Z,54.93
2019-05-07T18:32:16.634Z,55.04
2019-05-07T18:37:19.944Z,54.98
2019-05-07T18:42:23.271Z,54.36
2019-05-07T18:47:26.680Z,54.51
2019-05-07T18:52:31.892Z,54.35
2019-05-07T18:57:35.098Z,53.93
2019-05-07T19:02:38.471Z,52.75
2019-05-07T19:07:41.869Z,53.55
2019-05-07T19:12:45.337Z,52.45
2019-05-07T19:17:48.656Z,52.92
2019-05-07T19:22:52.045Z,52.93
2019-05-07T19:27:55.396Z,53.01
2019-05-07T19:32:58.721Z,52.98
2019-05-07T19:38:02.849Z,52.86
2019-05-07T19:43:06.499Z,52.78
2019-05-07T19:48:09.862Z,52.76
2019-05-07T19:53:13.266Z,52.72
2019-05-07T19:58:16.576Z,52.39
2019-05-07T20:03:22.223Z,52.43
2019-05-07T20:08:24.993Z,52.45
2019-05-07T20:13:28.378Z,52.40
2019-05-07T20:18:32.718Z,52.41
2019-05-07T20:23:36.515Z,52.46
2019-05-07T20:28:41.693Z,52.60
2019-05-07T20:33:44.871Z,52.80
2019-05-07T20:38:48.183Z,52.71
2019-05-07T20:43:52.380Z,52.74
2019-05-07T20:48:55.795Z,52.75
2019-05-07T20:54:03.534Z,52.67
2019-05-07T20:59:06.934Z,52.50
2019-05-07T21:04:12.752Z,52.42
2019-05-07T21:09:15.352Z,52.28
2019-05-07T21:14:18.651Z,52.25
2019-05-07T21:19:22.432Z,52.21
2019-05-07T21:24:25.860Z,52.25
2019-05-07T21:29:29.166Z,52.26
2019-05-07T21:34:32.493Z,52.25
2019-05-07T21:39:35.809Z,52.28
2019-05-07T21:44:39.119Z,52.29
2019-05-07T21:49:43.147Z,52.29
2019-05-07T21:54:48.087Z,52.37
2019-05-07T21:59:54.972Z,52.34
2019-05-07T22:04:58.121Z,52.36
2019-05-07T22:10:02.198Z,52.45
2019-05-07T22:15:05.658Z,52.50
2019-05-07T22:20:08.982Z,52.57
2019-05-07T22:25:13.109Z,52.61
2019-05-07T22:30:24.084Z,52.50
2019-05-07T22:35:32.019Z,52.48
2019-05-07T22:40:35.354Z,52.50
2019-05-07T22:45:38.772Z,52.50
2019-05-07T22:50:44.000Z,52.63
2019-05-07T22:55:47.186Z,52.53
2019-05-07T23:00:57.886Z,52.49
2019-05-07T23:06:06.789Z,52.58
2019-05-07T23:11:12.321Z,52.57
2019-05-07T23:16:15.180Z,52.56
2019-05-07T23:21:18.481Z,52.66
2019-05-07T23:26:23.344Z,52.65
2019-05-07T23:31:26.851Z,52.54
2019-05-07T23:36:30.217Z,52.67
2019-05-07T23:41:44.193Z,52.61
2019-05-07T23:46:47.534Z,52.62
2019-05-07T23:51:52.820Z,52.61
2019-05-07T23:57:05.921Z,52.63
